Time;durP1;ratioP1;P1;durP2;ratioP2;P2;SDS_P1;SDS_P2;PMS_P1;PMS_P2;Temp;Humidity;BMP_temperature;BMP_pressure;BME280_temperature;BME280_humidity;BME280_pressure;Samples;Min_cycle;Max_cycle;Signal;HPM_P1;HPM_P2
2023/06/04 00:09:53;;;;;;;;;;;;;;;6.72;55.71;99133.27;435511;1255;113097;-43
2023/06/04 00:19:57;;;;;;;;;;;;;;;6.53;56.22;99123.67;435240;1255;99346;-42
2023/06/04 00:30:03;;;;;;;;;;;;;;;6.39;56.52;99118.48;435349;1255;97980;-41
2023/06/04 00:40:10;;;;;;;;;;;;;;;6.33;56.78;99109.42;435363;1254;112108;-42
2023/06/04 00:50:16;;;;;;;;;;;;;;;6.30;57.18;99103.70;435437;1255;107591;-41
2023/06/04 01:00:22;;;;;;;;;;;;;;;6.10;57.34;99099.35;435355;1255;99217;-44
2023/06/04 01:10:28;;;;;;;;;;;;;;;5.80;57.78;99092.67;435374;1249;107553;-43
2023/06/04 01:20:34;;;;;;;;;;;;;;;5.63;58.28;99101.25;435370;1263;98015;-43
2023/06/04 01:30:42;;;;;;;;;;;;;;;5.34;58.46;99103.73;435302;1253;112046;-43
2023/06/04 01:40:48;;;;;;;;;;;;;;;5.08;59.06;99106.23;436582;1248;105856;-43
2023/06/04 01:50:54;;;;;;;;;;;;;;;5.02;59.49;99101.48;435498;1254;107296;-41
2023/06/04 02:01:02;;;;;;;;;;;;;;;4.96;59.83;99097.90;435798;1254;97923;-42
2023/06/04 02:11:09;;;;;;;;;;;;;;;4.86;60.08;99092.96;435953;1261;111216;-43
2023/06/04 02:21:14;;;;;;;;;;;;;;;4.85;60.16;99090.25;435803;1252;108136;-41
2023/06/04 02:31:21;;;;;;;;;;;;;;;4.88;60.41;99089.60;435949;1254;98713;-42
2023/06/04 02:41:26;;;;;;;;;;;;;;;4.90;60.59;99089.47;435920;1253;108509;-42
2023/06/04 02:51:32;;;;;;;;;;;;;;;5.05;60.75;99081.64;435852;1261;99304;-44
2023/06/04 03:01:38;;;;;;;;;;;;;;;5.07;60.63;99081.83;435952;1254;111125;-43
2023/06/04 03:11:43;;;;;;;;;;;;;;;5.25;61.24;99087.05;435870;1253;106914;-42
2023/06/04 03:21:52;;;;;;;;;;;;;;;7.45;61.00;99080.27;435915;1252;98800;-43
2023/06/04 03:31:57;;;;;;;;;;;;;;;11.18;58.75;99074.52;435961;1253;110732;-43
2023/06/04 03:42:03;;;;;;;;;;;;;;;13.89;55.98;99066.29;436118;1252;108272;-43
2023/06/04 03:52:09;;;;;;;;;;;;;;;15.39;53.20;99073.59;435503;1261;432271;-43
2023/06/04 04:02:14;;;;;;;;;;;;;;;16.75;51.15;99073.27;436063;1252;113167;-43
2023/06/04 04:12:20;;;;;;;;;;;;;;;17.43;49.32;99082.13;436128;1254;107382;-44
2023/06/04 04:22:27;;;;;;;;;;;;;;;17.72;48.02;99083.26;435956;1253;99304;-44
2023/06/04 04:32:33;;;;;;;;;;;;;;;18.46;46.57;99081.39;436019;1253;107929;-45
2023/06/04 04:42:38;;;;;;;;;;;;;;;18.61;45.45;99081.49;436120;1253;98850;-44
2023/06/04 04:52:44;;;;;;;;;;;;;;;18.88;44.36;99077.85;436043;1253;111816;-44
2023/06/04 05:02:50;;;;;;;;;;;;;;;18.47;43.43;99076.24;436002;1253;107270;-45
2023/06/04 05:12:57;;;;;;;;;;;;;;;18.57;43.37;99078.77;436018;1252;97994;-43
2023/06/04 05:33:09;;;;;;;;;;;;;;;18.40;42.79;99085.79;436084;1248;98602;-43
2023/06/04 05:43:14;;;;;;;;;;;;;;;18.29;42.25;99083.98;436069;1248;111542;-45
2023/06/04 05:53:21;;;;;;;;;;;;;;;18.31;42.28;99089.48;436064;1253;107961;-44
2023/06/04 06:13:32;;;;;;;;;;;;;;;19.31;41.21;99096.98;435997;1254;107548;-42
2023/06/04 06:23:37;;;;;;;;;;;;;;;19.66;40.12;99102.89;436055;1254;98812;-42
2023/06/04 06:33:43;;;;;;;;;;;;;;;20.01;39.69;99107.52;436134;1262;110944;-42
2023/06/04 06:43:50;;;;;;;;;;;;;;;20.22;39.13;99104.13;436023;1253;108508;-41
2023/06/04 06:53:56;;;;;;;;;;;;;;;20.79;38.18;99105.45;436135;1248;99218;-42
2023/06/04 07:04:01;;;;;;;;;;;;;;;20.78;38.08;99108.00;436061;1252;107525;-41
2023/06/04 07:14:07;;;;;;;;;;;;;;;20.75;37.28;99115.22;436137;1253;99202;-42
2023/06/04 07:24:13;;;;;;;;;;;;;;;20.53;36.17;99122.70;435935;1253;111901;-41
2023/06/04 07:34:19;;;;;;;;;;;;;;;20.27;36.60;99118.05;436218;1263;108406;-42
2023/06/04 07:44:25;;;;;;;;;;;;;;;20.71;35.46;99115.86;436129;1252;97973;-43
2023/06/04 07:54:31;;;;;;;;;;;;;;;20.87;35.18;99117.29;435996;1252;107770;-42
2023/06/04 08:04:36;;;;;;;;;;;;;;;20.68;33.39;99111.56;436038;1253;98485;-43
2023/06/04 08:14:41;;;;;;;;;;;;;;;20.09;33.53;99118.02;436236;1247;110825;-43
2023/06/04 08:34:52;;;;;;;;;;;;;;;20.42;33.46;99123.31;436386;1252;99340;-43
2023/06/04 08:44:58;;;;;;;;;;;;;;;20.74;33.28;99114.59;436136;1248;108846;-44
2023/06/04 08:55:04;;;;;;;;;;;;;;;21.03;32.98;99121.75;435890;1252;98570;-43
2023/06/04 09:15:13;;;;;;;;;;;;;;;21.02;32.51;99130.58;436486;1252;107593;-44
2023/06/04 09:25:20;;;;;;;;;;;;;;;20.91;32.68;99133.83;435979;1262;99212;-41
2023/06/04 09:35:26;;;;;;;;;;;;;;;20.96;32.46;99125.82;435977;1252;109455;-42
2023/06/04 09:45:32;;;;;;;;;;;;;;;20.89;32.31;99129.13;435908;1252;97995;-42
2023/06/04 09:55:38;;;;;;;;;;;;;;;21.22;32.09;99121.23;436029;1252;112061;-42
2023/06/04 10:05:44;;;;;;;;;;;;;;;21.45;31.99;99114.92;435913;1252;108092;-40
2023/06/04 10:25:56;;;;;;;;;;;;;;;21.63;30.90;99114.25;435846;1252;106789;-42
2023/06/04 10:36:16;;;;;;;;;;;;;;;21.88;31.43;99108.52;435949;1252;99868;-42
2023/06/04 10:46:21;;;;;;;;;;;;;;;21.73;30.54;99110.04;435937;1252;111717;-44
2023/06/04 11:06:32;;;;;;;;;;;;;;;22.05;30.51;99104.67;435922;1252;99212;-44
2023/06/04 11:16:38;;;;;;;;;;;;;;;22.00;30.12;99095.00;435852;1252;107862;-45
2023/06/04 11:26:42;;;;;;;;;;;;;;;22.37;30.30;99091.77;436054;1253;99237;-44
2023/06/04 11:37:08;;;;;;;;;;;;;;;22.21;29.51;99096.79;435990;1252;112160;-42
2023/06/04 11:47:13;;;;;;;;;;;;;;;22.06;29.36;99098.48;435883;1252;108154;-43
2023/06/04 11:57:18;;;;;;;;;;;;;;;22.34;29.74;99086.06;436041;1252;99233;-43
2023/06/04 12:07:24;;;;;;;;;;;;;;;22.45;29.30;99078.55;435784;1252;108861;-41
2023/06/04 12:17:30;;;;;;;;;;;;;;;22.57;29.10;99072.34;435808;1250;99315;-43
2023/06/04 12:27:34;;;;;;;;;;;;;;;22.47;28.97;99076.63;435690;1252;111788;-43
2023/06/04 12:37:40;;;;;;;;;;;;;;;22.34;29.04;99074.42;435698;1254;108486;-42
2023/06/04 12:47:47;;;;;;;;;;;;;;;22.13;29.00;99074.67;435776;1252;99319;-42
2023/06/04 12:57:53;;;;;;;;;;;;;;;22.16;28.87;99068.09;435784;1252;109016;-43
2023/06/04 13:07:58;;;;;;;;;;;;;;;22.04;28.86;99068.88;435803;1264;99314;-42
2023/06/04 13:18:04;;;;;;;;;;;;;;;22.10;28.86;99066.05;435835;1251;110958;-42
2023/06/04 13:28:09;;;;;;;;;;;;;;;22.03;28.71;99060.29;435976;1252;108363;-42
2023/06/04 13:38:14;;;;;;;;;;;;;;;22.12;28.86;99056.96;435703;1253;98023;-43
2023/06/04 13:48:20;;;;;;;;;;;;;;;22.13;28.68;99059.42;435787;1252;108520;-42
2023/06/04 13:58:24;;;;;;;;;;;;;;;22.21;29.08;99048.64;435655;1252;98009;-44
2023/06/04 14:08:31;;;;;;;;;;;;;;;22.50;29.12;99048.59;435608;1252;112945;-44
2023/06/04 14:18:38;;;;;;;;;;;;;;;22.29;28.90;99048.97;435652;1252;109365;-43
2023/06/04 14:28:44;;;;;;;;;;;;;;;22.30;29.27;99036.73;435819;1252;98328;-42
2023/06/04 14:38:49;;;;;;;;;;;;;;;22.33;28.76;99030.26;435519;1250;108704;-43
2023/06/04 14:48:55;;;;;;;;;;;;;;;22.14;28.87;99024.30;435642;1252;99215;-44
2023/06/04 14:59:05;;;;;;;;;;;;;;;22.25;29.16;99022.97;435688;1252;111163;-43
2023/06/04 15:09:10;;;;;;;;;;;;;;;22.23;28.97;99013.58;435679;1252;106518;-43
2023/06/04 15:19:16;;;;;;;;;;;;;;;22.15;28.87;99015.06;435509;1252;99215;-43
2023/06/04 15:29:22;;;;;;;;;;;;;;;21.99;28.76;99010.14;435691;1250;107538;-44
2023/06/04 15:39:27;;;;;;;;;;;;;;;21.95;28.81;99009.71;435779;1252;99190;-43
2023/06/04 15:49:33;;;;;;;;;;;;;;;21.82;28.77;99001.48;435471;1252;408468;-44
2023/06/04 15:59:38;;;;;;;;;;;;;;;21.85;28.97;98999.23;435527;1252;107837;-44
2023/06/04 16:09:44;;;;;;;;;;;;;;;21.94;29.01;98993.57;436059;1252;98825;-44
2023/06/04 16:19:49;;;;;;;;;;;;;;;21.78;28.86;99001.65;435569;1266;108252;-42
2023/06/04 16:29:56;;;;;;;;;;;;;;;21.67;28.79;99004.95;436748;1249;99221;-44
2023/06/04 16:40:02;;;;;;;;;;;;;;;21.46;28.34;99007.09;435688;1252;111512;-41
2023/06/04 16:50:08;;;;;;;;;;;;;;;21.27;28.50;99009.83;435259;1256;108235;-42
2023/06/04 17:00:13;;;;;;;;;;;;;;;21.11;28.61;99010.02;435364;1254;99321;-44
2023/06/04 17:10:32;;;;;;;;;;;;;;;20.98;28.89;99001.54;435352;1255;107940;-42
2023/06/04 17:20:36;;;;;;;;;;;;;;;20.86;29.38;99008.25;435325;1250;99262;-43
2023/06/04 17:30:42;;;;;;;;;;;;;;;20.67;29.63;99016.73;435326;1255;110780;-43
2023/06/04 17:40:48;;;;;;;;;;;;;;;20.48;30.22;99020.98;435475;1252;108602;-43
2023/06/04 18:00:58;;;;;;;;;;;;;;;20.02;30.95;99025.04;435510;1253;108441;-43
2023/06/04 18:11:04;;;;;;;;;;;;;;;19.72;31.30;99026.99;435492;1252;98822;-43
2023/06/04 18:21:09;;;;;;;;;;;;;;;19.40;31.82;99030.66;435758;1252;112621;-43
2023/06/04 18:31:15;;;;;;;;;;;;;;;18.95;32.67;99034.90;435482;1252;108466;-42
2023/06/04 18:51:26;;;;;;;;;;;;;;;17.68;34.74;99045.61;435511;1253;108170;-42
2023/06/04 19:01:32;;;;;;;;;;;;;;;17.08;35.90;99052.51;435612;1252;98003;-44
2023/06/04 19:11:37;;;;;;;;;;;;;;;16.46;37.03;99065.14;435464;1253;111020;-42
2023/06/04 19:21:46;;;;;;;;;;;;;;;15.90;38.26;99076.60;435507;1252;108584;-42
2023/06/04 19:31:52;;;;;;;;;;;;;;;15.40;39.55;99088.91;435520;1252;99223;-43
2023/06/04 19:41:58;;;;;;;;;;;;;;;14.99;40.60;99091.61;435577;1254;107866;-43
2023/06/04 19:52:04;;;;;;;;;;;;;;;14.65;41.59;99090.51;435572;1255;99305;-43
2023/06/04 20:12:16;;;;;;;;;;;;;;;13.91;43.42;99104.52;435573;1252;107301;-43
2023/06/04 20:22:22;;;;;;;;;;;;;;;13.67;44.39;99113.97;435538;1252;97975;-43
2023/06/04 20:32:28;;;;;;;;;;;;;;;13.27;44.91;99122.42;435552;1263;107968;-44
2023/06/04 20:42:34;;;;;;;;;;;;;;;13.02;45.98;99119.45;435456;1252;98801;-46
2023/06/04 20:52:40;;;;;;;;;;;;;;;12.82;46.97;99121.64;435745;1252;111852;-44
2023/06/04 21:02:46;;;;;;;;;;;;;;;12.59;47.76;99121.70;435445;1252;107711;-44
2023/06/04 21:12:52;;;;;;;;;;;;;;;12.14;47.75;99129.11;435462;1252;99209;-44
2023/06/04 21:22:58;;;;;;;;;;;;;;;11.94;48.41;99127.10;435453;1253;108571;-44
2023/06/04 21:33:05;;;;;;;;;;;;;;;11.82;49.16;99132.52;435660;1252;99243;-43
2023/06/04 21:43:12;;;;;;;;;;;;;;;11.74;50.14;99134.23;435446;1253;111370;-43
2023/06/04 21:53:17;;;;;;;;;;;;;;;11.57;50.62;99144.69;435483;1260;108240;-43
2023/06/04 22:03:23;;;;;;;;;;;;;;;11.26;50.79;99152.73;435561;1251;99307;-43
2023/06/04 22:13:29;;;;;;;;;;;;;;;11.10;51.55;99151.45;435514;1252;107228;-42
2023/06/04 22:23:35;;;;;;;;;;;;;;;10.99;52.09;99152.85;435401;1256;99212;-42
2023/06/04 22:33:41;;;;;;;;;;;;;;;10.79;52.06;99143.55;435560;1255;111731;-43
2023/06/04 22:43:47;;;;;;;;;;;;;;;10.59;52.74;99143.66;435560;1261;107466;-42
2023/06/04 22:53:55;;;;;;;;;;;;;;;10.75;53.28;99146.23;435593;1253;99237;-45
2023/06/04 23:04:00;;;;;;;;;;;;;;;11.26;52.96;99146.80;435575;1251;108597;-43
2023/06/04 23:14:06;;;;;;;;;;;;;;;11.52;52.82;99149.48;435678;1255;97971;-43
2023/06/04 23:24:12;;;;;;;;;;;;;;;12.00;52.32;99150.70;435601;1253;111239;-43
2023/06/04 23:34:17;;;;;;;;;;;;;;;12.34;51.69;99150.55;435449;1251;109278;-43
2023/06/04 23:44:23;;;;;;;;;;;;;;;12.52;51.43;99150.71;437434;1252;98000;-43
2023/06/04 23:54:29;;;;;;;;;;;;;;;12.58;51.15;99154.20;436218;1253;105929;-43
